イエローナイフ の空港の天気 - METARとTAF

イエローナイフ空港 ( CYZF / YZF ) - カナダ ノースウエスト準州イエローナイフ
飛行場実況気象(Metar)
観測時間10/16 01:00 MDT (10/16 07:00 UTC)
風向・風速東南東 6m/s 瞬間風速10m/s
視程3200m
天気現象弱い雪
全天を覆う雲 雲底高度 300m
気温0℃
湿度93%
気圧1009.1hPa
METARCYZF 160700Z 12012G19KT 2SM -SN OVC010 00/M01 A2975 RMK SC8 CIG RAG SLP091
過去の天気等 Google飛行場航空写真 Wunderground天気予報

過去48時間のMETAR

飛行場予報(TAF)
発表時間: 10/15 23:41 MDT (10/16 05:41 UTC)
予報対象時間: 16日0時 MDT ~ 17日0時 MDT
風向・風速南東 6m/s 瞬間風速 11m/s
視程10km以上
天気現象弱い雪雨
全天の4割程度の雲 雲底高度 180m
全天を覆う雲 雲底高度 610m
16日0時 MDT ~ 16日4時 MDT に一時的に
視程3220m
天気現象弱い雪
全天を覆う雲 雲底高度 180m
16日4時 MDT から
風向・風速東南東 6m/s 瞬間風速 11m/s
視程3220m
天気現象弱い雪
全天を覆う雲 雲底高度 150m
16日4時 MDT ~ 16日11時 MDT に一時的に
視程10km以上
天気現象弱い雪
全天の4割程度の雲 雲底高度 150m
全天を覆う雲 雲底高度 370m
16日4時 MDT から 確率 40% で
視程800m
天気現象
全天を覆う雲 鉛直視程 120m
16日12時 MDT から
風向・風速南東 5m/s
視程10km以上
天気現象弱い雪雨
全天を覆う雲 雲底高度 460m
16日12時 MDT ~ 16日16時 MDT に一時的に
視程3220m
天気現象弱い雪
全天を覆う雲 雲底高度 240m
16日12時 MDT ~ 16日14時 MDT に徐々に
風向・風速西 4m/s
16日16時 MDT から
風向・風速西 4m/s
視程10km以上
全天の8割程度の雲 雲底高度 370m
全天を覆う雲 雲底高度 1830m
16日16時 MDT から 確率 30% で
全天を覆う雲 雲底高度 180m
TAF CYZF 160541Z 1606/1706 13012G22KT P6SM -SNRA SCT006 OVC020
TEMPO 1606/1610 2SM -SN OVC006
FM161000 12012G22KT 2SM -SN OVC005
TEMPO 1610/1617 6SM -SN SCT005 OVC012
PROB40 1610/1617 1/2SM SN VV004
FM161800 14010KT P6SM -SNRA OVC015
TEMPO 1618/1622 2SM -SN OVC008
BECMG 1618/1620 26008KT
FM162200 26008KT P6SM BKN012 OVC060
PROB30 1622/1706 OVC006 RMK NXT FCST BY 161200Z